createdAt,value
2023-01-11T00:00:40.193Z,101251.72
2023-01-11T00:03:07.747Z,101250.84
2023-01-11T00:05:39.979Z,101256.16
2023-01-11T00:08:08.353Z,101260.53
2023-01-11T00:10:36.206Z,101248.22
2023-01-11T00:13:04.064Z,101249.97
2023-01-11T00:15:31.670Z,101249.94
2023-01-11T00:17:58.924Z,101249.94
2023-01-11T00:20:26.248Z,101253.47
2023-01-11T00:22:53.570Z,101249.09
2023-01-11T00:25:20.773Z,101249.06
2023-01-11T00:27:49.429Z,101237.63
2023-01-11T00:30:18.246Z,101235.88
2023-01-11T00:32:46.304Z,101235.00
2023-01-11T00:35:14.161Z,101231.44
2023-01-11T00:37:41.573Z,101216.47
2023-01-11T00:40:09.421Z,101208.53
2023-01-11T00:42:55.002Z,101233.22
2023-01-11T00:45:40.836Z,101209.44
2023-01-11T00:48:10.679Z,101209.41
2023-01-11T00:50:40.500Z,101211.19
2023-01-11T00:53:08.864Z,101234.97
2023-01-11T00:55:36.773Z,101225.25
2023-01-11T00:58:04.397Z,101216.38
2023-01-11T01:00:32.091Z,101219.03
2023-01-11T01:02:59.388Z,101228.72
2023-01-11T01:05:26.786Z,101217.28
2023-01-11T01:07:54.118Z,101222.56
2023-01-11T01:10:21.867Z,101216.38
2023-01-11T01:13:07.399Z,101218.97
2023-01-11T01:15:34.914Z,101230.44
2023-01-11T01:18:02.329Z,101240.13
2023-01-11T01:20:29.703Z,101237.47
2023-01-11T01:22:57.409Z,101236.53
2023-01-11T01:25:24.891Z,101238.31
2023-01-11T01:27:52.221Z,101255.06
2023-01-11T01:30:19.612Z,101247.09
2023-01-11T01:32:46.915Z,101254.09
2023-01-11T01:35:14.303Z,101258.44
2023-01-11T01:37:43.796Z,101259.31
2023-01-11T01:40:11.686Z,101268.09
2023-01-11T01:42:38.946Z,101266.31
2023-01-11T01:45:18.429Z,101266.31
2023-01-11T01:47:49.069Z,101269.00
2023-01-11T01:50:22.594Z,101266.38
2023-01-11T01:52:53.353Z,101265.50
2023-01-11T01:55:30.494Z,101268.00
2023-01-11T01:57:59.968Z,101260.06
2023-01-11T02:00:28.775Z,101268.00
2023-01-11T02:02:58.810Z,101261.81
2023-01-11T02:05:26.683Z,101263.63
2023-01-11T02:07:57.325Z,101251.34
2023-01-11T02:10:27.824Z,101255.81
2023-01-11T02:13:11.134Z,101261.16
2023-01-11T02:15:38.755Z,101258.41
2023-01-11T02:18:11.736Z,101256.63
2023-01-11T02:20:59.799Z,101260.16
2023-01-11T02:23:42.136Z,101254.91
2023-01-11T02:26:33.183Z,101247.78
2023-01-11T02:29:29.859Z,101252.25
2023-01-11T02:32:27.474Z,101249.59
2023-01-11T02:35:12.406Z,101254.03
2023-01-11T02:38:01.994Z,101252.25
2023-01-11T02:41:07.866Z,101252.28
2023-01-11T02:44:15.982Z,101252.34
2023-01-11T02:46:55.884Z,101235.63
2023-01-11T02:49:57.076Z,101240.94
2023-01-11T02:52:38.900Z,101233.91
2023-01-11T02:55:08.201Z,101247.94
2023-01-11T02:57:39.640Z,101241.69
2023-01-11T03:00:08.535Z,101240.84
2023-01-11T03:02:35.976Z,101239.13
2023-01-11T03:05:10.503Z,101246.09
2023-01-11T03:07:59.435Z,101237.25
2023-01-11T03:10:45.463Z,101240.75
2023-01-11T03:13:38.583Z,101245.97
2023-01-11T03:16:27.333Z,101256.28
2023-01-11T03:19:03.725Z,101258.97
2023-01-11T03:21:49.171Z,101259.81
2023-01-11T03:24:24.004Z,101250.16
2023-01-11T03:27:04.348Z,101252.81
2023-01-11T03:30:13.632Z,101246.66
2023-01-11T03:32:46.967Z,101245.84
2023-01-11T03:35:25.543Z,101244.91
2023-01-11T03:38:03.511Z,101230.78
2023-01-11T03:40:36.251Z,101244.81
2023-01-11T03:43:13.508Z,101241.38
2023-01-11T03:45:46.931Z,101233.41
2023-01-11T03:48:19.815Z,101234.22
2023-01-11T03:50:49.766Z,101234.16
2023-01-11T03:53:20.758Z,101229.72
2023-01-11T03:55:53.327Z,101226.31
2023-01-11T03:58:20.733Z,101227.25
2023-01-11T04:00:49.473Z,101228.19
2023-01-11T04:03:16.783Z,101223.75
2023-01-11T04:05:47.626Z,101221.09
2023-01-11T04:08:14.955Z,101214.00
2023-01-11T04:10:42.284Z,101222.78
2023-01-11T04:13:09.620Z,101231.50
2023-01-11T04:15:37.277Z,101229.53
2023-01-11T04:18:05.123Z,101220.81
2023-01-11T04:20:34.055Z,101243.72
2023-01-11T04:23:01.470Z,101226.13
2023-01-11T04:25:28.792Z,101233.22
2023-01-11T04:27:56.221Z,101235.78
2023-01-11T04:30:23.684Z,101238.44
2023-01-11T04:32:51.077Z,101251.72
2023-01-11T04:35:18.503Z,101263.13
2023-01-11T04:37:45.702Z,101261.34
2023-01-11T04:40:13.234Z,101263.94
2023-01-11T04:42:40.475Z,101266.56
2023-01-11T04:45:08.394Z,101268.22
2023-01-11T04:47:35.591Z,101269.97
2023-01-11T04:50:02.873Z,101272.63
2023-01-11T04:52:30.182Z,101260.41
2023-01-11T04:54:57.456Z,101266.44
2023-01-11T04:57:25.302Z,101267.34
2023-01-11T04:59:52.898Z,101262.09
2023-01-11T05:02:20.178Z,101264.72
2023-01-11T05:04:47.429Z,101262.00
2023-01-11T05:07:14.818Z,101261.34
2023-01-11T05:09:42.191Z,101260.63
2023-01-11T05:12:09.527Z,101262.34
2023-01-11T05:14:36.873Z,101269.38
2023-01-11T05:17:04.165Z,101263.28
2023-01-11T05:19:31.540Z,101272.06
2023-01-11T05:21:59.027Z,101258.81
2023-01-11T05:24:26.350Z,101256.13
2023-01-11T05:26:53.659Z,101248.22
2023-01-11T05:29:21.826Z,101243.00
2023-01-11T05:31:49.276Z,101251.00
2023-01-11T05:34:17.295Z,101249.22
2023-01-11T05:36:45.087Z,101258.88
2023-01-11T05:39:13.643Z,101261.50
2023-01-11T05:41:41.069Z,101260.56
2023-01-11T05:44:31.086Z,101256.16
2023-01-11T05:46:58.798Z,101265.81
2023-01-11T05:49:26.314Z,101264.91
2023-01-11T05:51:53.753Z,101267.50
2023-01-11T05:54:21.164Z,101257.75
2023-01-11T05:56:48.553Z,101263.97
2023-01-11T05:59:15.861Z,101265.78
2023-01-11T06:01:43.433Z,101267.53
2023-01-11T06:04:10.844Z,101261.44
2023-01-11T06:06:38.291Z,101253.47
2023-01-11T06:09:05.790Z,101251.75
2023-01-11T06:11:33.065Z,101257.13
2023-01-11T06:14:00.453Z,101258.00
2023-01-11T06:16:27.833Z,101252.81
2023-01-11T06:18:55.153Z,101252.88
2023-01-11T06:21:22.502Z,101258.09
2023-01-11T06:23:53.342Z,101255.50
2023-01-11T06:26:22.474Z,101262.59
2023-01-11T06:28:50.602Z,101257.34
2023-01-11T06:31:18.755Z,101259.91
2023-01-11T06:33:56.059Z,101262.50
2023-01-11T06:36:23.584Z,101274.78
2023-01-11T06:38:52.405Z,101267.69
2023-01-11T06:41:19.961Z,101260.41
2023-01-11T06:43:47.443Z,101264.72
2023-01-11T06:46:16.223Z,101265.50
2023-01-11T06:48:44.507Z,101267.44
2023-01-11T06:51:13.052Z,101259.63
2023-01-11T06:53:41.981Z,101255.16
2023-01-11T06:56:18.956Z,101265.78
2023-01-11T06:58:47.819Z,101265.69
2023-01-11T07:01:18.184Z,101263.13
2023-01-11T07:03:45.988Z,101262.31
2023-01-11T07:06:14.094Z,101258.72
2023-01-11T07:08:42.808Z,101267.75
2023-01-11T07:11:28.997Z,101256.34
2023-01-11T07:13:56.418Z,101262.47
2023-01-11T07:16:23.813Z,101274.06
2023-01-11T07:18:51.238Z,101245.94
2023-01-11T07:21:18.836Z,101268.00
2023-01-11T07:23:48.370Z,101274.00
2023-01-11T07:26:17.452Z,101280.19
2023-01-11T07:28:45.028Z,101275.88
2023-01-11T07:31:12.510Z,101270.59
2023-01-11T07:33:39.956Z,101291.69
2023-01-11T07:36:07.623Z,101269.66
2023-01-11T07:38:35.179Z,101283.78
2023-01-11T07:41:22.690Z,101278.50
2023-01-11T07:43:50.268Z,101275.91
2023-01-11T07:46:17.944Z,101277.69
2023-01-11T07:48:45.400Z,101272.41
2023-01-11T07:51:13.466Z,101294.53
2023-01-11T07:53:40.855Z,101287.44
2023-01-11T07:56:08.212Z,101299.81
2023-01-11T07:58:35.592Z,101295.47
2023-01-11T08:01:02.959Z,101296.38
2023-01-11T08:03:30.538Z,101295.50
2023-01-11T08:05:57.986Z,101308.81
2023-01-11T08:08:25.413Z,101299.13
2023-01-11T08:11:12.735Z,101304.34
2023-01-11T08:13:59.155Z,101300.00
2023-01-11T08:16:27.491Z,101300.06
2023-01-11T08:18:54.928Z,101304.50
2023-01-11T08:21:22.581Z,101315.91
2023-01-11T08:23:49.972Z,101307.16
2023-01-11T08:26:18.214Z,101293.03
2023-01-11T08:28:45.937Z,101290.44
2023-01-11T08:31:13.465Z,101305.47
2023-01-11T08:33:41.032Z,101310.72
2023-01-11T08:36:11.114Z,101316.91
2023-01-11T08:38:38.882Z,101315.16
2023-01-11T08:41:10.781Z,101312.50
2023-01-11T08:43:38.899Z,101304.59
2023-01-11T08:46:07.026Z,101310.81
2023-01-11T08:48:34.908Z,101326.69
2023-01-11T08:51:02.442Z,101317.88
2023-01-11T08:53:30.070Z,101324.97
2023-01-11T08:55:57.426Z,101324.94
2023-01-11T08:58:25.488Z,101322.31
2023-01-11T09:00:52.859Z,101330.25
2023-01-11T09:03:20.794Z,101332.88
2023-01-11T09:05:48.133Z,101327.53
2023-01-11T09:08:15.486Z,101346.06
2023-01-11T09:10:42.802Z,101346.94
2023-01-11T09:13:10.065Z,101339.84
2023-01-11T09:15:37.331Z,101333.69
2023-01-11T09:18:05.221Z,101337.22
2023-01-11T09:20:32.835Z,101348.66
2023-01-11T09:23:00.149Z,101341.53
2023-01-11T09:25:27.627Z,101346.84
2023-01-11T09:27:54.924Z,101345.97
2023-01-11T09:30:23.633Z,101346.84
2023-01-11T09:32:58.148Z,101347.69
2023-01-11T09:35:27.068Z,101342.38
2023-01-11T09:37:56.276Z,101348.56
2023-01-11T09:40:47.154Z,101330.03
2023-01-11T09:43:17.521Z,101343.28
2023-01-11T09:45:46.928Z,101332.63
2023-01-11T09:48:43.462Z,101344.09
2023-01-11T09:51:16.588Z,101342.25
2023-01-11T09:53:50.437Z,101349.34
2023-01-11T09:56:25.593Z,101337.84
2023-01-11T09:59:05.803Z,101336.09
2023-01-11T10:02:01.382Z,101337.78
2023-01-11T10:05:06.186Z,101331.53
2023-01-11T10:18:31.572Z,101330.50
2023-01-11T10:19:48.356Z,101326.88
2023-01-11T10:22:33.570Z,101317.22
2023-01-11T10:25:05.604Z,101320.63
2023-01-11T10:27:40.420Z,101314.53
2023-01-11T10:30:34.193Z,101312.72
2023-01-11T10:33:45.542Z,101289.72
2023-01-11T10:36:50.448Z,101294.91
2023-01-11T10:39:55.819Z,101289.56
2023-01-11T10:42:28.722Z,101296.63
2023-01-11T10:45:25.904Z,101292.94
2023-01-11T10:48:18.159Z,101291.16
2023-01-11T10:50:54.027Z,101277.09
2023-01-11T10:53:29.553Z,101288.28
2023-01-11T10:56:15.706Z,101280.00
2023-01-11T10:58:55.184Z,101286.09
2023-01-11T11:01:46.297Z,101286.31
2023-01-11T11:04:35.803Z,101291.56
2023-01-11T11:07:25.422Z,101268.59
2023-01-11T11:10:02.692Z,101272.06
2023-01-11T11:12:35.194Z,101284.28
2023-01-11T11:15:07.994Z,101273.53
2023-01-11T11:17:39.931Z,101276.75
2023-01-11T11:20:16.030Z,101286.38
2023-01-11T11:22:45.122Z,101275.19
2023-01-11T11:25:23.056Z,101269.75
2023-01-11T11:27:55.687Z,101256.34
2023-01-11T11:30:39.173Z,101258.94
2023-01-11T11:33:31.863Z,101260.56
2023-01-11T11:36:05.162Z,101250.88
2023-01-11T11:38:38.886Z,101244.53
2023-01-11T11:41:14.561Z,101239.31
2023-01-11T11:43:44.868Z,101251.59
2023-01-11T11:46:20.890Z,101239.28
2023-01-11T11:49:11.675Z,101236.53
2023-01-11T11:51:41.328Z,101232.25
2023-01-11T11:54:30.618Z,101219.84
2023-01-11T11:57:12.202Z,101220.56
2023-01-11T11:59:47.305Z,101220.28
2023-01-11T12:02:32.291Z,101211.50
2023-01-11T12:05:05.204Z,101212.44
2023-01-11T12:07:49.792Z,101206.16
2023-01-11T12:10:24.579Z,101213.13
2023-01-11T12:13:03.719Z,101207.97
2023-01-11T12:15:33.348Z,101212.28
2023-01-11T12:18:34.185Z,101208.78
2023-01-11T12:21:21.995Z,101202.53
2023-01-11T12:24:21.345Z,101187.47
2023-01-11T12:27:13.434Z,101194.19
2023-01-11T12:30:02.000Z,101191.78
2023-01-11T12:33:07.803Z,101193.53
2023-01-11T12:35:53.634Z,101186.44
2023-01-11T12:38:24.461Z,101187.28
2023-01-11T12:40:52.249Z,101186.34
2023-01-11T12:43:49.999Z,101175.69
2023-01-11T12:46:31.663Z,101175.81
2023-01-11T12:49:17.886Z,101173.97
2023-01-11T12:52:03.015Z,101171.19
2023-01-11T12:54:52.406Z,101163.78
2023-01-11T12:57:22.468Z,101153.09
2023-01-11T13:00:01.814Z,101162.00
2023-01-11T13:03:07.011Z,101162.97
2023-01-11T13:06:00.566Z,101168.41
2023-01-11T13:08:53.356Z,101154.22
2023-01-11T13:12:11.382Z,101156.06
2023-01-11T13:14:44.506Z,101141.91
2023-01-11T13:17:47.193Z,101141.13
2023-01-11T13:20:40.352Z,101133.19
2023-01-11T13:23:29.380Z,101146.44
2023-01-11T13:25:58.287Z,101133.28
2023-01-11T13:28:38.638Z,101131.56
2023-01-11T13:31:09.357Z,101128.03
2023-01-11T13:33:40.789Z,101111.25
2023-01-11T13:36:22.897Z,101113.91
2023-01-11T13:38:54.011Z,101112.16
2023-01-11T13:41:25.901Z,101120.09
2023-01-11T13:44:06.157Z,101121.91
2023-01-11T13:46:48.805Z,101118.41
2023-01-11T13:49:53.604Z,101115.91
2023-01-11T13:52:35.489Z,101111.50
2023-01-11T13:55:26.886Z,101111.59
2023-01-11T13:58:12.742Z,101113.25
2023-01-11T14:01:07.579Z,101108.91
2023-01-11T14:03:52.647Z,101108.97
2023-01-11T14:06:35.671Z,101104.25
2023-01-11T14:09:27.761Z,101106.22
2023-01-11T14:12:07.092Z,101099.28
2023-01-11T14:14:55.427Z,101109.16
2023-01-11T14:17:28.910Z,101108.44
2023-01-11T14:20:17.925Z,101121.72
2023-01-11T14:23:09.668Z,101111.22
2023-01-11T14:26:09.183Z,101114.75
2023-01-11T14:28:56.535Z,101109.31
2023-01-11T14:31:49.637Z,101115.63
2023-01-11T14:34:25.625Z,101115.69
2023-01-11T14:37:10.897Z,101121.91
2023-01-11T14:39:46.995Z,101124.69
2023-01-11T14:42:38.422Z,101114.97
2023-01-11T14:45:16.844Z,101111.53
2023-01-11T14:48:02.478Z,101106.28
2023-01-11T14:51:01.343Z,101105.50
2023-01-11T14:53:33.485Z,101111.69
2023-01-11T14:56:00.891Z,101107.28
2023-01-11T14:58:31.771Z,101107.25
2023-01-11T15:00:59.093Z,101099.31
2023-01-11T15:03:42.841Z,101107.34
2023-01-11T15:06:20.580Z,101095.00
2023-01-11T15:08:49.975Z,101081.72
2023-01-11T15:11:40.845Z,101080.88
2023-01-11T15:14:23.061Z,101072.06
2023-01-11T15:17:15.794Z,101077.44
2023-01-11T15:19:44.281Z,101060.69
2023-01-11T15:22:32.296Z,101071.38
2023-01-11T15:25:06.737Z,101074.94
2023-01-11T15:27:37.159Z,101074.19
2023-01-11T15:30:07.318Z,101055.59
2023-01-11T15:32:36.195Z,101055.72
2023-01-11T15:35:39.064Z,101045.19
2023-01-11T15:38:18.336Z,101043.34
2023-01-11T15:40:46.546Z,101047.88
2023-01-11T15:43:37.279Z,101048.66
2023-01-11T15:46:29.518Z,101060.19
2023-01-11T15:49:08.745Z,101063.81
2023-01-11T15:52:31.351Z,101067.38
2023-01-11T15:55:29.536Z,101065.75
2023-01-11T15:58:41.464Z,101078.06
2023-01-11T16:01:26.652Z,101083.50
2023-01-11T16:04:25.579Z,101081.72
2023-01-11T16:07:02.211Z,101087.03
2023-01-11T16:10:03.825Z,101095.00
2023-01-11T16:12:56.505Z,101096.97
2023-01-11T16:15:51.660Z,101113.78
2023-01-11T16:18:44.199Z,101103.25
2023-01-11T16:21:21.370Z,101110.38
2023-01-11T16:23:49.218Z,101111.31
2023-01-11T16:26:19.667Z,101112.22
2023-01-11T16:28:53.147Z,101120.34
2023-01-11T16:31:20.859Z,101113.19
2023-01-11T16:33:49.947Z,101097.25
2023-01-11T16:36:23.478Z,101095.59
2023-01-11T16:39:02.403Z,101091.16
2023-01-11T16:41:39.176Z,101085.81
2023-01-11T16:44:09.209Z,101095.50
2023-01-11T16:46:42.762Z,101105.22
2023-01-11T16:49:10.523Z,101096.47
2023-01-11T16:51:37.999Z,101112.41
2023-01-11T16:54:05.964Z,101124.81
2023-01-11T16:56:35.408Z,101114.25
2023-01-11T16:59:26.500Z,101114.25
2023-01-11T17:02:04.074Z,101122.25
2023-01-11T17:04:37.422Z,101105.56
2023-01-11T17:07:22.844Z,101109.06
2023-01-11T17:09:50.528Z,101117.06
2023-01-11T17:12:22.776Z,101117.06
2023-01-11T17:15:23.124Z,101125.94
2023-01-11T17:17:50.978Z,101125.03
2023-01-11T17:20:29.255Z,101118.09
2023-01-11T17:22:57.851Z,101120.72
2023-01-11T17:25:37.293Z,101119.78
2023-01-11T17:28:19.819Z,101117.94
2023-01-11T17:30:51.008Z,101117.13
2023-01-11T17:33:41.577Z,101125.94
2023-01-11T17:36:09.582Z,101118.91
2023-01-11T17:38:38.320Z,101131.31
2023-01-11T17:41:27.692Z,101123.34
2023-01-11T17:44:14.120Z,101127.81
2023-01-11T17:46:41.736Z,101122.59
2023-01-11T17:49:21.382Z,101129.69
2023-01-11T17:51:49.089Z,101130.59
2023-01-11T17:54:24.531Z,101142.03
2023-01-11T17:57:00.769Z,101143.81
2023-01-11T17:59:30.131Z,101156.06
2023-01-11T18:02:02.738Z,101144.69
2023-01-11T18:04:31.865Z,101145.50
2023-01-11T18:07:28.472Z,101157.94
2023-01-11T18:10:02.970Z,101156.19
2023-01-11T18:12:33.958Z,101161.47
2023-01-11T18:15:04.799Z,101156.19
2023-01-11T18:17:33.135Z,101165.88
2023-01-11T18:20:22.370Z,101152.66
2023-01-11T18:23:13.518Z,101148.22
2023-01-11T18:25:41.568Z,101150.00
2023-01-11T18:28:11.673Z,101146.53
2023-01-11T18:30:41.984Z,101156.25
2023-01-11T18:33:24.980Z,101147.44
2023-01-11T18:35:55.371Z,101141.22
2023-01-11T18:38:28.706Z,101143.88
2023-01-11T18:40:58.108Z,101133.28
2023-01-11T18:43:31.141Z,101136.84
2023-01-11T18:45:58.515Z,101150.97
2023-01-11T18:48:25.869Z,101154.47
2023-01-11T18:50:54.562Z,101148.28
2023-01-11T18:53:23.704Z,101129.88
2023-01-11T18:55:51.238Z,101128.06
2023-01-11T18:58:18.847Z,101130.78
2023-01-11T19:00:46.414Z,101129.91
2023-01-11T19:05:42.363Z,101133.47
2023-01-11T19:08:09.721Z,101140.53
2023-01-11T19:10:37.040Z,101148.44
2023-01-11T19:13:04.489Z,101137.81
2023-01-11T19:15:34.675Z,101152.78
2023-01-11T19:18:05.288Z,101153.66
2023-01-11T19:20:32.659Z,101150.13
2023-01-11T19:23:00.121Z,101149.22
2023-01-11T19:25:27.519Z,101153.69
2023-01-11T19:27:55.133Z,101151.97
2023-01-11T19:30:22.477Z,101149.28
2023-01-11T19:32:51.706Z,101155.50
2023-01-11T19:35:19.271Z,101160.84
2023-01-11T19:37:46.620Z,101166.13
2023-01-11T19:40:14.041Z,101160.88
2023-01-11T19:42:41.377Z,101163.50
2023-01-11T19:45:09.268Z,101167.91
2023-01-11T19:47:36.591Z,101181.13
2023-01-11T19:50:04.508Z,101182.88
2023-01-11T19:52:31.962Z,101176.72
2023-01-11T19:54:59.490Z,101181.09
2023-01-11T19:57:30.272Z,101182.88
2023-01-11T19:59:57.632Z,101190.81
2023-01-11T20:02:25.161Z,101209.38
2023-01-11T20:04:53.123Z,101224.34
2023-01-11T20:07:20.931Z,101199.66
2023-01-11T20:09:48.354Z,101212.00
2023-01-11T20:12:16.720Z,101205.84
2023-01-11T20:14:46.207Z,101195.25
2023-01-11T20:17:19.228Z,101224.34
2023-01-11T20:19:49.892Z,101208.47
2023-01-11T20:22:17.467Z,101204.91
2023-01-11T20:24:44.825Z,101206.66
2023-01-11T20:27:12.126Z,101201.38
2023-01-11T20:29:39.937Z,101197.81
2023-01-11T20:32:31.227Z,101178.53
2023-01-11T20:34:55.044Z,101186.47
2023-01-11T20:37:22.717Z,101187.34
2023-01-11T20:39:50.278Z,101190.88
2023-01-11T20:42:18.006Z,101191.75
2023-01-11T20:44:45.393Z,101185.56
2023-01-11T20:47:12.767Z,101183.81
2023-01-11T20:49:40.164Z,101176.72
2023-01-11T20:52:07.500Z,101170.56
2023-01-11T20:54:34.854Z,101195.28
2023-01-11T20:57:05.826Z,101199.69
2023-01-11T20:59:33.347Z,101201.44
2023-01-11T21:02:00.725Z,101199.69
2023-01-11T21:04:27.988Z,101195.22
2023-01-11T21:06:55.290Z,101185.53
2023-01-11T21:09:22.910Z,101173.22
2023-01-11T21:11:53.857Z,101165.28
2023-01-11T21:14:22.387Z,101172.28
2023-01-11T21:16:49.921Z,101167.78
2023-01-11T21:19:17.449Z,101175.75
2023-01-11T21:21:44.856Z,101172.19
2023-01-11T21:24:13.959Z,101174.78
2023-01-11T21:26:42.628Z,101158.03
2023-01-11T21:29:11.781Z,101161.59
2023-01-11T21:31:40.398Z,101158.94
2023-01-11T21:34:11.505Z,101159.81
2023-01-11T21:36:39.817Z,101166.94
2023-01-11T21:39:07.207Z,101158.09
2023-01-11T21:41:53.455Z,101166.91
2023-01-11T21:44:23.100Z,101172.19
2023-01-11T21:46:50.760Z,101178.38
2023-01-11T21:49:18.153Z,101189.81
2023-01-11T21:51:45.543Z,101202.25
2023-01-11T21:54:14.857Z,101211.13
2023-01-11T21:56:42.227Z,101219.06
2023-01-11T21:59:10.364Z,101219.06
2023-01-11T22:01:39.323Z,101217.28
2023-01-11T22:04:12.951Z,101225.19
2023-01-11T22:06:42.891Z,101212.88
2023-01-11T22:09:11.695Z,101210.19
2023-01-11T22:11:39.587Z,101195.97
2023-01-11T22:14:08.664Z,101194.13
2023-01-11T22:16:37.028Z,101189.78
2023-01-11T22:19:07.372Z,101181.72
2023-01-11T22:21:37.021Z,101193.97
2023-01-11T22:24:06.871Z,101184.38
2023-01-11T22:26:38.495Z,101190.59
2023-01-11T22:29:16.422Z,101179.91
2023-01-11T22:31:51.358Z,101154.41
2023-01-11T22:34:19.364Z,101148.28
2023-01-11T22:36:46.947Z,101143.88
2023-01-11T22:39:16.221Z,101123.56
2023-01-11T22:41:45.622Z,101110.34
2023-01-11T22:44:13.992Z,101112.97
2023-01-11T22:46:42.434Z,101084.72
2023-01-11T22:49:10.967Z,101099.72
2023-01-11T22:51:39.744Z,101119.19
2023-01-11T22:54:07.157Z,101141.22
2023-01-11T22:56:34.649Z,101135.91
2023-01-11T22:59:02.226Z,101157.06
2023-01-11T23:01:32.953Z,101192.50
2023-01-11T23:04:01.720Z,101209.28
2023-01-11T23:06:33.825Z,101225.22
2023-01-11T23:09:01.264Z,101235.81
2023-01-11T23:11:50.406Z,101232.28
2023-01-11T23:14:19.121Z,101241.09
2023-01-11T23:16:48.185Z,101238.44
2023-01-11T23:19:17.491Z,101245.50
2023-01-11T23:21:46.875Z,101235.78
2023-01-11T23:24:15.738Z,101244.59
2023-01-11T23:26:43.754Z,101254.34
2023-01-11T23:29:11.879Z,101253.44
2023-01-11T23:31:39.468Z,101249.88
2023-01-11T23:34:08.449Z,101257.84
2023-01-11T23:36:38.315Z,101271.06
2023-01-11T23:39:07.794Z,101264.94
2023-01-11T23:41:53.703Z,101267.56
2023-01-11T23:44:22.663Z,101260.50
2023-01-11T23:47:09.540Z,101267.56
2023-01-11T23:49:37.057Z,101264.00
2023-01-11T23:52:04.941Z,101265.72
2023-01-11T23:54:33.737Z,101263.06
2023-01-11T23:57:02.573Z,101249.81
2023-01-11T23:59:30.242Z,101241.03
